sensor_id;sensor_type;location;lat;lon;timestamp;pressure;altitude;pressure_sealevel;temperature;humidity
62025;BME280;47978;49.118;12.146;2023-07-02T00:03:55;96745.63;;;17.51;88.55
62025;BME280;47978;49.118;12.146;2023-07-02T00:07:57;96750.19;;;17.59;88.14
62025;BME280;47978;49.118;12.146;2023-07-02T00:12:00;96743.69;;;17.55;88.32
62025;BME280;47978;49.118;12.146;2023-07-02T00:16:01;96749.69;;;17.53;88.39
62025;BME280;47978;49.118;12.146;2023-07-02T00:20:04;96754.44;;;17.53;88.30
62025;BME280;47978;49.118;12.146;2023-07-02T00:24:06;96754.88;;;17.55;88.70
62025;BME280;47978;49.118;12.146;2023-07-02T00:28:09;96757.31;;;17.57;88.52
62025;BME280;47978;49.118;12.146;2023-07-02T00:32:10;96748.28;;;17.44;89.09
62025;BME280;47978;49.118;12.146;2023-07-02T00:36:12;96755.63;;;17.52;88.80
62025;BME280;47978;49.118;12.146;2023-07-02T00:40:14;96751.47;;;17.42;89.61
62025;BME280;47978;49.118;12.146;2023-07-02T00:44:17;96747.78;;;17.38;89.83
62025;BME280;47978;49.118;12.146;2023-07-02T00:48:18;96756.66;;;17.44;89.66
62025;BME280;47978;49.118;12.146;2023-07-02T00:52:20;96756.97;;;17.39;89.90
62025;BME280;47978;49.118;12.146;2023-07-02T00:56:22;96761.22;;;17.33;90.61
62025;BME280;47978;49.118;12.146;2023-07-02T01:00:25;96754.84;;;17.32;90.47
62025;BME280;47978;49.118;12.146;2023-07-02T01:04:27;96763.16;;;17.28;90.72
62025;BME280;47978;49.118;12.146;2023-07-02T01:08:29;96755.63;;;17.33;89.92
62025;BME280;47978;49.118;12.146;2023-07-02T01:12:31;96756.31;;;17.26;90.27
62025;BME280;47978;49.118;12.146;2023-07-02T01:16:35;96759.19;;;17.29;89.75
62025;BME280;47978;49.118;12.146;2023-07-02T01:20:39;96752.72;;;17.25;90.02
62025;BME280;47978;49.118;12.146;2023-07-02T01:24:41;96759.78;;;17.19;90.84
62025;BME280;47978;49.118;12.146;2023-07-02T01:28:43;96759.78;;;17.19;90.52
62025;BME280;47978;49.118;12.146;2023-07-02T01:32:44;96757.41;;;17.21;90.11
62025;BME280;47978;49.118;12.146;2023-07-02T01:36:47;96759.34;;;17.17;90.20
62025;BME280;47978;49.118;12.146;2023-07-02T01:40:49;96759.16;;;17.10;91.08
62025;BME280;47978;49.118;12.146;2023-07-02T01:44:51;96770.78;;;17.12;90.96
62025;BME280;47978;49.118;12.146;2023-07-02T01:48:52;96768.00;;;17.12;91.25
62025;BME280;47978;49.118;12.146;2023-07-02T01:52:55;96780.50;;;17.18;90.37
62025;BME280;47978;49.118;12.146;2023-07-02T01:56:57;96783.88;;;17.08;90.68
62025;BME280;47978;49.118;12.146;2023-07-02T02:00:59;96778.72;;;17.10;90.89
62025;BME280;47978;49.118;12.146;2023-07-02T02:05:00;96785.03;;;17.07;91.59
62025;BME280;47978;49.118;12.146;2023-07-02T02:09:04;96787.31;;;17.01;91.07
62025;BME280;47978;49.118;12.146;2023-07-02T02:13:05;96775.75;;;16.83;92.08
62025;BME280;47978;49.118;12.146;2023-07-02T02:17:07;96774.97;;;16.83;92.12
62025;BME280;47978;49.118;12.146;2023-07-02T02:21:09;96786.66;;;16.73;93.21
62025;BME280;47978;49.118;12.146;2023-07-02T02:25:12;96778.84;;;16.78;93.11
62025;BME280;47978;49.118;12.146;2023-07-02T02:29:13;96781.28;;;16.80;92.84
62025;BME280;47978;49.118;12.146;2023-07-02T02:33:15;96781.34;;;16.83;92.78
62025;BME280;47978;49.118;12.146;2023-07-02T02:37:16;96791.06;;;16.90;92.49
62025;BME280;47978;49.118;12.146;2023-07-02T02:41:19;96796.56;;;16.86;92.46
62025;BME280;47978;49.118;12.146;2023-07-02T02:45:21;96785.22;;;16.79;92.21
62025;BME280;47978;49.118;12.146;2023-07-02T02:49:22;96782.41;;;16.95;91.56
62025;BME280;47978;49.118;12.146;2023-07-02T02:53:24;96766.22;;;17.04;90.67
62025;BME280;47978;49.118;12.146;2023-07-02T02:57:27;96764.44;;;16.96;90.12
62025;BME280;47978;49.118;12.146;2023-07-02T03:01:28;96770.50;;;17.17;88.63
62025;BME280;47978;49.118;12.146;2023-07-02T03:05:30;96768.81;;;17.13;88.17
62025;BME280;47978;49.118;12.146;2023-07-02T03:09:31;96776.84;;;17.14;86.91
62025;BME280;47978;49.118;12.146;2023-07-02T03:13:34;96783.88;;;17.08;86.17
62025;BME280;47978;49.118;12.146;2023-07-02T03:17:36;96780.25;;;17.07;84.87
62025;BME280;47978;49.118;12.146;2023-07-02T03:21:37;96773.06;;;17.06;83.55
62025;BME280;47978;49.118;12.146;2023-07-02T03:25:39;96785.16;;;17.11;82.31
62025;BME280;47978;49.118;12.146;2023-07-02T03:29:42;96790.72;;;17.11;80.83
62025;BME280;47978;49.118;12.146;2023-07-02T03:33:43;96789.34;;;17.20;79.82
62025;BME280;47978;49.118;12.146;2023-07-02T03:37:45;96793.22;;;17.16;79.66
62025;BME280;47978;49.118;12.146;2023-07-02T03:41:46;96794.63;;;17.06;78.57
62025;BME280;47978;49.118;12.146;2023-07-02T03:45:49;96801.38;;;17.05;78.25
62025;BME280;47978;49.118;12.146;2023-07-02T03:49:51;96804.81;;;16.98;78.79
62025;BME280;47978;49.118;12.146;2023-07-02T03:53:52;96809.25;;;16.99;78.65
62025;BME280;47978;49.118;12.146;2023-07-02T03:57:54;96807.47;;;16.91;79.14
62025;BME280;47978;49.118;12.146;2023-07-02T04:01:57;96806.34;;;16.96;78.82
62025;BME280;47978;49.118;12.146;2023-07-02T04:05:58;96814.13;;;16.86;79.29
62025;BME280;47978;49.118;12.146;2023-07-02T04:10:00;96820.34;;;16.64;80.21
62025;BME280;47978;49.118;12.146;2023-07-02T04:14:01;96833.84;;;16.62;80.87
62025;BME280;47978;49.118;12.146;2023-07-02T04:18:04;96841.34;;;16.58;81.15
62025;BME280;47978;49.118;12.146;2023-07-02T04:22:06;96838.00;;;16.52;81.55
62025;BME280;47978;49.118;12.146;2023-07-02T04:26:08;96843.59;;;16.52;81.40
62025;BME280;47978;49.118;12.146;2023-07-02T04:30:29;96836.75;;;16.50;81.58
62025;BME280;47978;49.118;12.146;2023-07-02T04:34:32;96845.03;;;16.46;82.07
62025;BME280;47978;49.118;12.146;2023-07-02T04:38:34;96837.66;;;16.54;81.95
62025;BME280;47978;49.118;12.146;2023-07-02T04:42:36;96850.09;;;16.56;82.09
62025;BME280;47978;49.118;12.146;2023-07-02T04:46:37;96847.38;;;16.60;81.62
62025;BME280;47978;49.118;12.146;2023-07-02T04:50:41;96853.13;;;16.67;81.69
62025;BME280;47978;49.118;12.146;2023-07-02T04:54:43;96854.91;;;16.75;81.74
62025;BME280;47978;49.118;12.146;2023-07-02T04:58:45;96856.88;;;17.06;80.42
62025;BME280;47978;49.118;12.146;2023-07-02T05:02:46;96871.25;;;17.24;79.75
62025;BME280;47978;49.118;12.146;2023-07-02T05:06:49;96873.38;;;17.86;76.41
62025;BME280;47978;49.118;12.146;2023-07-02T05:10:51;96882.75;;;17.77;76.72
62025;BME280;47978;49.118;12.146;2023-07-02T05:14:52;96888.88;;;17.64;76.61
62025;BME280;47978;49.118;12.146;2023-07-02T05:18:54;96888.84;;;17.44;76.90
62025;BME280;47978;49.118;12.146;2023-07-02T05:22:57;96888.13;;;17.67;77.07
62025;BME280;47978;49.118;12.146;2023-07-02T05:26:58;96894.84;;;18.01;75.29
62025;BME280;47978;49.118;12.146;2023-07-02T05:31:00;96903.06;;;17.74;75.48
62025;BME280;47978;49.118;12.146;2023-07-02T05:35:02;96915.47;;;17.93;74.01
62025;BME280;47978;49.118;12.146;2023-07-02T05:39:05;96913.97;;;18.18;73.38
62025;BME280;47978;49.118;12.146;2023-07-02T05:43:06;96917.72;;;18.92;70.04
62025;BME280;47978;49.118;12.146;2023-07-02T05:47:08;96923.81;;;18.32;71.82
62025;BME280;47978;49.118;12.146;2023-07-02T05:51:10;96929.09;;;17.94;71.96
62025;BME280;47978;49.118;12.146;2023-07-02T05:55:13;96930.06;;;17.67;73.51
62025;BME280;47978;49.118;12.146;2023-07-02T05:59:14;96931.50;;;17.41;73.35
62025;BME280;47978;49.118;12.146;2023-07-02T06:03:16;96927.97;;;17.44;74.37
62025;BME280;47978;49.118;12.146;2023-07-02T06:07:18;96937.75;;;17.35;74.42
62025;BME280;47978;49.118;12.146;2023-07-02T06:11:21;96935.06;;;17.58;74.29
62025;BME280;47978;49.118;12.146;2023-07-02T06:15:22;96935.81;;;17.54;73.77
62025;BME280;47978;49.118;12.146;2023-07-02T06:19:24;96940.91;;;17.68;73.61
62025;BME280;47978;49.118;12.146;2023-07-02T06:23:26;96952.09;;;17.68;73.51
62025;BME280;47978;49.118;12.146;2023-07-02T06:27:28;96953.84;;;17.57;72.73
62025;BME280;47978;49.118;12.146;2023-07-02T06:31:30;96961.50;;;17.60;71.41
62025;BME280;47978;49.118;12.146;2023-07-02T06:35:32;96957.81;;;17.56;71.63
62025;BME280;47978;49.118;12.146;2023-07-02T06:39:33;96969.16;;;17.63;71.49
62025;BME280;47978;49.118;12.146;2023-07-02T06:43:36;96967.22;;;17.48;70.95
62025;BME280;47978;49.118;12.146;2023-07-02T06:47:37;96971.06;;;17.59;70.89
62025;BME280;47978;49.118;12.146;2023-07-02T06:51:39;96970.63;;;17.41;68.87
62025;BME280;47978;49.118;12.146;2023-07-02T06:55:41;96973.34;;;17.38;69.17
62025;BME280;47978;49.118;12.146;2023-07-02T06:59:44;96975.59;;;17.48;68.44
62025;BME280;47978;49.118;12.146;2023-07-02T07:03:45;96984.00;;;17.48;68.79
62025;BME280;47978;49.118;12.146;2023-07-02T07:07:47;96992.75;;;17.30;69.33
62025;BME280;47978;49.118;12.146;2023-07-02T07:11:48;96988.25;;;17.26;69.71
62025;BME280;47978;49.118;12.146;2023-07-02T07:15:51;96993.13;;;17.29;69.37
62025;BME280;47978;49.118;12.146;2023-07-02T07:19:53;96991.94;;;17.30;69.40
62025;BME280;47978;49.118;12.146;2023-07-02T07:23:54;96983.13;;;17.63;68.09
62025;BME280;47978;49.118;12.146;2023-07-02T07:27:57;96974.06;;;17.86;68.44
62025;BME280;47978;49.118;12.146;2023-07-02T07:32:00;96982.19;;;18.10;67.71
62025;BME280;47978;49.118;12.146;2023-07-02T07:36:02;96984.59;;;18.31;66.74
62025;BME280;47978;49.118;12.146;2023-07-02T07:40:04;96978.44;;;18.64;65.85
62025;BME280;47978;49.118;12.146;2023-07-02T07:44:06;96979.44;;;18.53;64.54
62025;BME280;47978;49.118;12.146;2023-07-02T07:48:09;96973.03;;;18.75;63.65
62025;BME280;47978;49.118;12.146;2023-07-02T07:52:11;96985.09;;;18.76;63.61
62025;BME280;47978;49.118;12.146;2023-07-02T07:56:12;96981.91;;;18.77;63.96
62025;BME280;47978;49.118;12.146;2023-07-02T08:00:15;96981.34;;;18.91;62.34
62025;BME280;47978;49.118;12.146;2023-07-02T08:04:18;96975.19;;;18.82;60.90
62025;BME280;47978;49.118;12.146;2023-07-02T08:08:19;96980.84;;;19.08;59.29
62025;BME280;47978;49.118;12.146;2023-07-02T08:12:21;96983.03;;;19.19;59.22
62025;BME280;47978;49.118;12.146;2023-07-02T08:16:23;96981.72;;;19.13;59.16
62025;BME280;47978;49.118;12.146;2023-07-02T08:20:26;96984.91;;;19.38;57.21
62025;BME280;47978;49.118;12.146;2023-07-02T08:24:27;96996.47;;;19.32;58.21
62025;BME280;47978;49.118;12.146;2023-07-02T08:28:29;96993.53;;;19.25;58.62
62025;BME280;47978;49.118;12.146;2023-07-02T08:32:30;96989.03;;;19.21;58.69
62025;BME280;47978;49.118;12.146;2023-07-02T08:36:33;96994.34;;;19.26;58.17
62025;BME280;47978;49.118;12.146;2023-07-02T08:40:35;96994.78;;;19.28;57.31
62025;BME280;47978;49.118;12.146;2023-07-02T08:44:37;96991.66;;;19.33;58.32
62025;BME280;47978;49.118;12.146;2023-07-02T08:48:39;97006.81;;;19.78;55.91
62025;BME280;47978;49.118;12.146;2023-07-02T08:52:42;96997.53;;;20.04;55.36
62025;BME280;47978;49.118;12.146;2023-07-02T08:56:44;96993.69;;;20.83;52.88
62025;BME280;47978;49.118;12.146;2023-07-02T09:01:04;96981.75;;;22.04;50.74
62025;BME280;47978;49.118;12.146;2023-07-02T09:05:07;96980.94;;;22.00;49.53
62025;BME280;47978;49.118;12.146;2023-07-02T09:09:10;96990.47;;;21.77;51.48
62025;BME280;47978;49.118;12.146;2023-07-02T09:13:11;96985.03;;;21.47;51.16
62025;BME280;47978;49.118;12.146;2023-07-02T09:17:13;96991.50;;;21.07;53.04
62025;BME280;47978;49.118;12.146;2023-07-02T09:21:15;96986.47;;;21.30;51.45
62025;BME280;47978;49.118;12.146;2023-07-02T09:25:17;96985.50;;;20.71;51.73
62025;BME280;47978;49.118;12.146;2023-07-02T09:29:21;96987.16;;;20.72;50.68
62025;BME280;47978;49.118;12.146;2023-07-02T09:33:24;96970.59;;;21.49;48.71
62025;BME280;47978;49.118;12.146;2023-07-02T09:37:26;96966.63;;;21.61;49.00
62025;BME280;47978;49.118;12.146;2023-07-02T09:41:29;96969.94;;;21.77;48.39
62025;BME280;47978;49.118;12.146;2023-07-02T09:45:31;96975.03;;;21.57;47.23
62025;BME280;47978;49.118;12.146;2023-07-02T09:49:34;96990.13;;;21.34;48.06
62025;BME280;47978;49.118;12.146;2023-07-02T09:53:36;96975.63;;;21.84;47.39
62025;BME280;47978;49.118;12.146;2023-07-02T09:57:40;96989.72;;;21.88;47.82
62025;BME280;47978;49.118;12.146;2023-07-02T10:01:44;96979.91;;;22.30;47.74
62025;BME280;47978;49.118;12.146;2023-07-02T10:05:46;96979.16;;;22.40;47.55
62025;BME280;47978;49.118;12.146;2023-07-02T10:09:47;96984.88;;;22.79;45.96
62025;BME280;47978;49.118;12.146;2023-07-02T10:13:58;96967.13;;;22.57;44.31
62025;BME280;47978;49.118;12.146;2023-07-02T10:18:02;96978.44;;;22.79;44.96
62025;BME280;47978;49.118;12.146;2023-07-02T10:22:04;96984.31;;;22.23;43.29
62025;BME280;47978;49.118;12.146;2023-07-02T10:26:14;96959.97;;;21.94;43.38
62025;BME280;47978;49.118;12.146;2023-07-02T10:30:17;96968.22;;;22.24;43.83
62025;BME280;47978;49.118;12.146;2023-07-02T10:34:29;96982.06;;;22.76;42.70
62025;BME280;47978;49.118;12.146;2023-07-02T10:38:31;96987.13;;;22.31;41.80
62025;BME280;47978;49.118;12.146;2023-07-02T10:42:33;96971.22;;;21.87;42.58
62025;BME280;47978;49.118;12.146;2023-07-02T10:46:43;96993.13;;;22.22;42.31
62025;BME280;47978;49.118;12.146;2023-07-02T10:50:44;96974.06;;;21.94;42.61
62025;BME280;47978;49.118;12.146;2023-07-02T10:54:47;96986.75;;;22.36;40.74
62025;BME280;47978;49.118;12.146;2023-07-02T10:58:48;96979.97;;;22.48;41.29
62025;BME280;47978;49.118;12.146;2023-07-02T11:02:51;96974.81;;;22.75;39.66
62025;BME280;47978;49.118;12.146;2023-07-02T11:06:53;96977.00;;;22.15;40.51
62025;BME280;47978;49.118;12.146;2023-07-02T11:11:04;96982.56;;;22.05;40.22
62025;BME280;47978;49.118;12.146;2023-07-02T11:15:09;96976.00;;;22.74;39.23
62025;BME280;47978;49.118;12.146;2023-07-02T11:19:12;96985.69;;;22.76;39.00
62025;BME280;47978;49.118;12.146;2023-07-02T11:23:18;96984.03;;;22.68;39.08
62025;BME280;47978;49.118;12.146;2023-07-02T11:27:21;96979.34;;;23.54;39.29
62025;BME280;47978;49.118;12.146;2023-07-02T11:31:26;96981.34;;;23.32;37.62
62025;BME280;47978;49.118;12.146;2023-07-02T11:35:35;96978.13;;;23.41;38.65
62025;BME280;47978;49.118;12.146;2023-07-02T11:39:36;96975.72;;;23.15;38.73
62025;BME280;47978;49.118;12.146;2023-07-02T11:43:38;96977.59;;;22.60;37.91
62025;BME280;47978;49.118;12.146;2023-07-02T11:47:39;96972.66;;;22.32;39.01
62025;BME280;47978;49.118;12.146;2023-07-02T11:51:43;96973.94;;;22.45;38.57
62025;BME280;47978;49.118;12.146;2023-07-02T11:55:44;96969.91;;;22.47;37.66
62025;BME280;47978;49.118;12.146;2023-07-02T11:59:46;96970.59;;;22.18;37.52
62025;BME280;47978;49.118;12.146;2023-07-02T12:03:48;96970.44;;;23.17;37.06
62025;BME280;47978;49.118;12.146;2023-07-02T12:07:51;96963.63;;;23.32;36.20
62025;BME280;47978;49.118;12.146;2023-07-02T12:11:53;96965.19;;;23.69;36.79
62025;BME280;47978;49.118;12.146;2023-07-02T12:15:54;96968.47;;;23.17;37.46
62025;BME280;47978;49.118;12.146;2023-07-02T12:19:56;96967.19;;;22.86;36.22
62025;BME280;47978;49.118;12.146;2023-07-02T12:23:59;96961.59;;;23.40;35.67
62025;BME280;47978;49.118;12.146;2023-07-02T12:28:02;96962.38;;;23.58;36.19
62025;BME280;47978;49.118;12.146;2023-07-02T12:32:05;96961.19;;;23.27;36.80
62025;BME280;47978;49.118;12.146;2023-07-02T12:36:06;96970.81;;;23.90;37.56
62025;BME280;47978;49.118;12.146;2023-07-02T12:40:10;96938.31;;;24.52;36.15
62025;BME280;47978;49.118;12.146;2023-07-02T12:44:12;96946.81;;;24.41;35.97
62025;BME280;47978;49.118;12.146;2023-07-02T12:48:14;96947.22;;;24.47;36.12
62025;BME280;47978;49.118;12.146;2023-07-02T12:52:15;96956.66;;;24.08;35.86
62025;BME280;47978;49.118;12.146;2023-07-02T12:56:18;96939.19;;;24.35;35.47
62025;BME280;47978;49.118;12.146;2023-07-02T13:00:20;96946.47;;;24.32;36.37
62025;BME280;47978;49.118;12.146;2023-07-02T13:04:21;96935.00;;;24.68;36.74
62025;BME280;47978;49.118;12.146;2023-07-02T13:08:23;96950.25;;;24.81;35.47
62025;BME280;47978;49.118;12.146;2023-07-02T13:12:26;96950.50;;;24.28;36.40
62025;BME280;47978;49.118;12.146;2023-07-02T13:16:28;96957.97;;;23.46;37.25
62025;BME280;47978;49.118;12.146;2023-07-02T13:20:30;96943.78;;;24.00;36.90
62025;BME280;47978;49.118;12.146;2023-07-02T13:24:34;96941.03;;;24.74;36.45
62025;BME280;47978;49.118;12.146;2023-07-02T13:28:37;96935.06;;;24.57;34.67
62025;BME280;47978;49.118;12.146;2023-07-02T13:32:39;96930.50;;;24.78;35.12
62025;BME280;47978;49.118;12.146;2023-07-02T13:36:40;96934.13;;;24.82;35.38
62025;BME280;47978;49.118;12.146;2023-07-02T13:40:42;96945.50;;;24.64;35.04
62025;BME280;47978;49.118;12.146;2023-07-02T13:44:45;96938.03;;;24.21;35.43
62025;BME280;47978;49.118;12.146;2023-07-02T13:48:46;96947.88;;;23.77;36.62
62025;BME280;47978;49.118;12.146;2023-07-02T13:52:48;96933.38;;;23.18;36.82
62025;BME280;47978;49.118;12.146;2023-07-02T13:56:50;96940.19;;;23.82;36.43
62025;BME280;47978;49.118;12.146;2023-07-02T14:00:53;96926.31;;;24.27;34.66
62025;BME280;47978;49.118;12.146;2023-07-02T14:04:54;96949.50;;;24.70;35.17
62025;BME280;47978;49.118;12.146;2023-07-02T14:08:58;96948.03;;;24.40;34.87
62025;BME280;47978;49.118;12.146;2023-07-02T14:13:00;96951.75;;;24.23;34.67
62025;BME280;47978;49.118;12.146;2023-07-02T14:17:03;96958.38;;;23.41;36.37
62025;BME280;47978;49.118;12.146;2023-07-02T14:21:05;96948.28;;;23.47;35.98
62025;BME280;47978;49.118;12.146;2023-07-02T14:25:07;96952.94;;;24.29;35.69
62025;BME280;47978;49.118;12.146;2023-07-02T14:29:09;96942.81;;;24.35;35.96
62025;BME280;47978;49.118;12.146;2023-07-02T14:33:12;96942.91;;;24.10;35.59
62025;BME280;47978;49.118;12.146;2023-07-02T14:37:13;96947.28;;;24.29;35.37
62025;BME280;47978;49.118;12.146;2023-07-02T14:41:15;96937.25;;;24.17;36.70
62025;BME280;47978;49.118;12.146;2023-07-02T14:45:17;96942.19;;;23.88;36.35
62025;BME280;47978;49.118;12.146;2023-07-02T14:49:20;96950.47;;;24.42;34.23
62025;BME280;47978;49.118;12.146;2023-07-02T14:53:21;96947.00;;;24.86;34.91
62025;BME280;47978;49.118;12.146;2023-07-02T14:57:23;96933.06;;;25.13;33.88
62025;BME280;47978;49.118;12.146;2023-07-02T15:01:25;96937.84;;;24.61;33.96
62025;BME280;47978;49.118;12.146;2023-07-02T15:05:28;96946.88;;;24.27;34.74
62025;BME280;47978;49.118;12.146;2023-07-02T15:09:29;96946.06;;;25.04;34.38
62025;BME280;47978;49.118;12.146;2023-07-02T15:13:31;96933.13;;;24.43;35.01
62025;BME280;47978;49.118;12.146;2023-07-02T15:17:33;96929.78;;;24.63;35.28
62025;BME280;47978;49.118;12.146;2023-07-02T15:21:36;96938.19;;;24.70;34.49
62025;BME280;47978;49.118;12.146;2023-07-02T15:25:38;96943.28;;;24.16;34.42
62025;BME280;47978;49.118;12.146;2023-07-02T15:29:40;96948.28;;;23.79;34.94
62025;BME280;47978;49.118;12.146;2023-07-02T15:33:41;96939.28;;;24.17;35.26
62025;BME280;47978;49.118;12.146;2023-07-02T15:37:44;96947.63;;;24.38;35.39
62025;BME280;47978;49.118;12.146;2023-07-02T15:41:46;96943.66;;;24.29;35.30
62025;BME280;47978;49.118;12.146;2023-07-02T15:45:51;96949.91;;;24.72;33.96
62025;BME280;47978;49.118;12.146;2023-07-02T15:49:53;96947.53;;;24.63;35.00
62025;BME280;47978;49.118;12.146;2023-07-02T15:53:56;96945.59;;;24.50;34.50
62025;BME280;47978;49.118;12.146;2023-07-02T15:57:57;96949.38;;;24.91;34.28
62025;BME280;47978;49.118;12.146;2023-07-02T16:01:59;96945.84;;;24.73;34.29
62025;BME280;47978;49.118;12.146;2023-07-02T16:06:02;96945.56;;;24.53;35.21
62025;BME280;47978;49.118;12.146;2023-07-02T16:10:09;96940.22;;;23.71;35.92
62025;BME280;47978;49.118;12.146;2023-07-02T16:14:13;96942.91;;;24.14;35.67
62025;BME280;47978;49.118;12.146;2023-07-02T16:18:15;96947.63;;;24.38;35.72
62025;BME280;47978;49.118;12.146;2023-07-02T16:22:17;96938.78;;;24.33;36.00
62025;BME280;47978;49.118;12.146;2023-07-02T16:26:20;96935.13;;;24.39;35.49
62025;BME280;47978;49.118;12.146;2023-07-02T16:30:22;96936.19;;;24.67;35.66
62025;BME280;47978;49.118;12.146;2023-07-02T16:34:24;96933.75;;;24.73;35.67
62025;BME280;47978;49.118;12.146;2023-07-02T16:38:27;96940.78;;;24.43;34.89
62025;BME280;47978;49.118;12.146;2023-07-02T16:42:30;96932.06;;;23.98;36.30
62025;BME280;47978;49.118;12.146;2023-07-02T16:46:31;96935.28;;;24.00;36.76
62025;BME280;47978;49.118;12.146;2023-07-02T16:50:33;96932.88;;;23.98;36.49
62025;BME280;47978;49.118;12.146;2023-07-02T16:54:34;96939.00;;;23.72;37.45
62025;BME280;47978;49.118;12.146;2023-07-02T16:58:37;96942.63;;;23.79;37.25
62025;BME280;47978;49.118;12.146;2023-07-02T17:02:39;96931.25;;;24.08;36.87
62025;BME280;47978;49.118;12.146;2023-07-02T17:06:42;96946.97;;;24.06;37.44
62025;BME280;47978;49.118;12.146;2023-07-02T17:10:44;96944.97;;;23.99;37.24
62025;BME280;47978;49.118;12.146;2023-07-02T17:14:48;96949.06;;;23.91;37.08
62025;BME280;47978;49.118;12.146;2023-07-02T17:18:50;96948.25;;;23.83;37.20
62025;BME280;47978;49.118;12.146;2023-07-02T17:22:51;96956.34;;;23.74;37.58
62025;BME280;47978;49.118;12.146;2023-07-02T17:26:55;96954.72;;;23.48;37.69
62025;BME280;47978;49.118;12.146;2023-07-02T17:30:58;96956.34;;;23.63;37.75
62025;BME280;47978;49.118;12.146;2023-07-02T17:35:00;96949.91;;;23.48;38.71
62025;BME280;47978;49.118;12.146;2023-07-02T17:39:01;96949.91;;;23.52;38.35
62025;BME280;47978;49.118;12.146;2023-07-02T17:43:03;96947.47;;;23.57;38.24
62025;BME280;47978;49.118;12.146;2023-07-02T17:47:08;96950.72;;;23.49;38.26
62025;BME280;47978;49.118;12.146;2023-07-02T17:51:09;96945.09;;;23.20;39.44
62025;BME280;47978;49.118;12.146;2023-07-02T17:55:11;96954.34;;;23.06;39.42
62025;BME280;47978;49.118;12.146;2023-07-02T17:59:13;96952.75;;;23.09;39.71
62025;BME280;47978;49.118;12.146;2023-07-02T18:03:16;96957.56;;;23.08;39.92
62025;BME280;47978;49.118;12.146;2023-07-02T18:07:19;96962.00;;;23.09;39.76
62025;BME280;47978;49.118;12.146;2023-07-02T18:11:21;96961.97;;;22.95;40.04
62025;BME280;47978;49.118;12.146;2023-07-02T18:15:22;96961.50;;;22.64;39.95
62025;BME280;47978;49.118;12.146;2023-07-02T18:19:25;96963.88;;;22.52;40.86
62025;BME280;47978;49.118;12.146;2023-07-02T18:23:27;96969.91;;;22.54;40.70
62025;BME280;47978;49.118;12.146;2023-07-02T18:27:28;96974.78;;;22.60;41.07
62025;BME280;47978;49.118;12.146;2023-07-02T18:31:30;96963.84;;;22.37;40.67
62025;BME280;47978;49.118;12.146;2023-07-02T18:35:33;96967.97;;;21.85;41.62
62025;BME280;47978;49.118;12.146;2023-07-02T18:39:35;96961.66;;;22.06;41.83
62025;BME280;47978;49.118;12.146;2023-07-02T18:43:37;96963.13;;;21.82;42.03
62025;BME280;47978;49.118;12.146;2023-07-02T18:47:39;96967.78;;;21.52;42.19
62025;BME280;47978;49.118;12.146;2023-07-02T18:51:42;96972.41;;;21.30;43.18
62025;BME280;47978;49.118;12.146;2023-07-02T18:55:53;96973.25;;;21.34;43.48
62025;BME280;47978;49.118;12.146;2023-07-02T18:59:55;96987.28;;;21.31;44.40
62025;BME280;47978;49.118;12.146;2023-07-02T19:03:56;96985.41;;;21.01;47.55
62025;BME280;47978;49.118;12.146;2023-07-02T19:08:00;96992.28;;;20.33;50.73
62025;BME280;47978;49.118;12.146;2023-07-02T19:12:01;96989.28;;;19.88;51.80
62025;BME280;47978;49.118;12.146;2023-07-02T19:16:03;96992.81;;;19.32;52.63
62025;BME280;47978;49.118;12.146;2023-07-02T19:20:06;97003.19;;;19.28;53.33
62025;BME280;47978;49.118;12.146;2023-07-02T19:24:09;97008.16;;;18.92;54.40
62025;BME280;47978;49.118;12.146;2023-07-02T19:28:10;97007.03;;;18.54;55.19
62025;BME280;47978;49.118;12.146;2023-07-02T19:32:12;97015.91;;;18.17;56.66
62025;BME280;47978;49.118;12.146;2023-07-02T19:36:13;97011.81;;;17.60;58.75
62025;BME280;47978;49.118;12.146;2023-07-02T19:40:17;97022.25;;;17.28;59.74
62025;BME280;47978;49.118;12.146;2023-07-02T19:44:18;97019.00;;;16.94;60.75
62025;BME280;47978;49.118;12.146;2023-07-02T19:48:20;97035.94;;;16.85;61.17
62025;BME280;47978;49.118;12.146;2023-07-02T19:52:22;97031.41;;;16.53;62.81
62025;BME280;47978;49.118;12.146;2023-07-02T19:56:26;97032.25;;;16.25;64.00
62025;BME280;47978;49.118;12.146;2023-07-02T20:00:28;97040.31;;;16.14;64.08
62025;BME280;47978;49.118;12.146;2023-07-02T20:04:29;97044.91;;;15.82;65.61
62025;BME280;47978;49.118;12.146;2023-07-02T20:08:31;97055.47;;;15.64;66.39
62025;BME280;47978;49.118;12.146;2023-07-02T20:12:34;97055.84;;;15.38;67.71
62025;BME280;47978;49.118;12.146;2023-07-02T20:16:35;97062.81;;;15.20;68.38
62025;BME280;47978;49.118;12.146;2023-07-02T20:20:37;97068.13;;;15.13;68.06
62025;BME280;47978;49.118;12.146;2023-07-02T20:24:39;97068.13;;;15.00;69.05
62025;BME280;47978;49.118;12.146;2023-07-02T20:28:42;97077.47;;;14.83;69.30
62025;BME280;47978;49.118;12.146;2023-07-02T20:32:43;97066.75;;;14.73;69.75
62025;BME280;47978;49.118;12.146;2023-07-02T20:36:45;97074.41;;;14.64;70.48
62025;BME280;47978;49.118;12.146;2023-07-02T20:40:55;97078.63;;;14.28;71.56
62025;BME280;47978;49.118;12.146;2023-07-02T20:44:58;97077.22;;;14.22;71.81
62025;BME280;47978;49.118;12.146;2023-07-02T20:48:59;97082.78;;;14.01;72.48
62025;BME280;47978;49.118;12.146;2023-07-02T20:53:01;97089.69;;;13.95;72.91
62025;BME280;47978;49.118;12.146;2023-07-02T20:57:03;97091.44;;;13.79;73.38
62025;BME280;47978;49.118;12.146;2023-07-02T21:01:09;97094.94;;;13.67;73.81
62025;BME280;47978;49.118;12.146;2023-07-02T21:05:11;97092.22;;;13.58;74.48
62025;BME280;47978;49.118;12.146;2023-07-02T21:09:13;97095.84;;;13.50;74.88